Time;durP1;ratioP1;P1;durP2;ratioP2;P2;SDS_P1;SDS_P2;PMS_P1;PMS_P2;Temp;Humidity;BMP_temperature;BMP_pressure;BME280_temperature;BME280_humidity;BME280_pressure;Samples;Min_cycle;Max_cycle;Signal;HPM_P1;HPM_P2
2024/04/01 00:01:14;;;;;;;1.17;1.00;;;;;;;10.69;100.00;97093.25;4988306;28;20204;-79
2024/04/01 00:03:39;;;;;;;1.25;1.15;;;;;;;10.80;100.00;97094.19;5023833;28;20247;-80
2024/04/01 00:06:05;;;;;;;0.77;0.77;;;;;;;10.89;100.00;97086.63;5003281;28;20667;-79
2024/04/01 00:08:31;;;;;;;1.33;1.10;;;;;;;10.84;100.00;97094.28;4993902;28;20712;-79
2024/04/01 00:10:56;;;;;;;0.93;0.93;;;;;;;10.84;100.00;97095.97;5014248;28;20220;-80
2024/04/01 00:13:22;;;;;;;1.67;1.58;;;;;;;10.88;100.00;97096.03;4991979;28;20211;-79
2024/04/01 00:15:47;;;;;;;1.40;1.20;;;;;;;10.91;100.00;97102.91;5028521;28;20200;-80
2024/04/01 00:18:13;;;;;;;1.52;1.27;;;;;;;10.93;100.00;97098.66;5005769;28;20223;-79
2024/04/01 00:20:39;;;;;;;1.50;1.40;;;;;;;10.93;100.00;97116.63;5026060;28;20660;-79
2024/04/01 00:23:04;;;;;;;1.70;1.48;;;;;;;10.93;100.00;97129.47;5000812;28;20208;-79
2024/04/01 00:25:31;;;;;;;1.63;1.48;;;;;;;10.97;100.00;97139.78;5028532;28;20230;-78
2024/04/01 00:27:57;;;;;;;1.38;1.27;;;;;;;10.75;100.00;97124.97;5006123;28;20224;-79
2024/04/01 00:30:23;;;;;;;1.50;1.40;;;;;;;10.87;100.00;97119.09;5010185;28;20655;-80
2024/04/01 00:32:48;;;;;;;2.20;1.60;;;;;;;10.86;100.00;97122.53;5028924;28;20208;-79
2024/04/01 00:35:17;;;;;;;2.22;1.70;;;;;;;10.92;100.00;97117.47;5010914;28;20238;-78
2024/04/01 00:37:43;;;;;;;1.40;1.30;;;;;;;10.75;100.00;97114.69;4997559;28;20211;-80
2024/04/01 00:40:08;;;;;;;1.20;1.10;;;;;;;10.82;100.00;97113.06;5009730;28;20213;-79
2024/04/01 00:42:34;;;;;;;1.23;1.10;;;;;;;10.75;100.00;97106.13;5012178;28;20204;-78
2024/04/01 00:45:00;;;;;;;2.70;1.27;;;;;;;10.79;100.00;97092.50;5012040;28;20212;-78
2024/04/01 00:47:26;;;;;;;2.45;1.13;;;;;;;10.73;100.00;97077.88;5010824;28;20287;-78
2024/04/01 00:49:52;;;;;;;1.33;1.15;;;;;;;10.67;100.00;97072.69;5034170;28;20273;-79
2024/04/01 00:52:19;;;;;;;1.10;1.00;;;;;;;10.79;100.00;97065.09;5012989;28;20280;-79
2024/04/01 00:54:45;;;;;;;1.40;1.30;;;;;;;10.65;100.00;97062.38;5011789;28;20215;-78
2024/04/01 00:57:12;;;;;;;1.30;1.20;;;;;;;10.70;100.00;97043.63;5010674;28;20274;-78
2024/04/01 00:59:38;;;;;;;1.65;1.48;;;;;;;10.72;100.00;97037.69;5008004;28;20231;-78
2024/04/01 01:02:04;;;;;;;1.15;1.13;;;;;;;10.58;100.00;97034.09;5002080;28;20199;-78
2024/04/01 01:04:30;;;;;;;1.33;1.20;;;;;;;10.75;100.00;97026.56;5013168;28;20291;-79
2024/04/01 01:06:56;;;;;;;7.07;3.95;;;;;;;10.81;100.00;97026.63;5032264;28;20584;-76
2024/04/01 01:09:21;;;;;;;2.63;2.10;;;;;;;10.80;100.00;97020.63;5010403;28;20239;-77
2024/04/01 01:11:47;;;;;;;4.07;2.50;;;;;;;10.87;100.00;97016.41;5024320;28;20217;-77
2024/04/01 01:14:13;;;;;;;2.60;2.15;;;;;;;10.92;100.00;97015.66;5012153;28;20668;-77
2024/04/01 01:16:39;;;;;;;2.58;2.30;;;;;;;10.89;100.00;97004.47;5005421;28;21256;-77
2024/04/01 01:19:06;;;;;;;3.90;2.50;;;;;;;10.93;100.00;97011.38;5028737;28;20302;-77
2024/04/01 01:21:32;;;;;;;3.30;2.17;;;;;;;10.68;100.00;97007.69;5030281;28;20208;-77
2024/04/01 01:23:57;;;;;;;2.38;1.83;;;;;;;10.74;100.00;97014.56;5012764;28;20211;-77
2024/04/01 01:26:23;;;;;;;2.72;2.00;;;;;;;10.65;100.00;97018.75;5024248;28;20212;-76
2024/04/01 01:28:50;;;;;;;2.15;1.55;;;;;;;10.79;100.00;97018.06;5017506;28;20404;-76
2024/04/01 01:31:16;;;;;;;2.72;1.75;;;;;;;10.45;100.00;97017.69;5007437;28;20888;-75
2024/04/01 01:33:42;;;;;;;2.83;1.63;;;;;;;10.28;100.00;97016.63;5008419;28;20240;-76
2024/04/01 01:36:07;;;;;;;1.58;1.40;;;;;;;10.39;100.00;97009.91;5003555;28;20311;-76
2024/04/01 01:38:33;;;;;;;2.10;1.38;;;;;;;10.35;100.00;97015.84;5027017;28;20274;-76
2024/04/01 01:40:59;;;;;;;1.05;0.93;;;;;;;10.41;100.00;97005.66;5029771;28;20227;-76
2024/04/01 01:43:24;;;;;;;1.58;1.10;;;;;;;10.45;100.00;96992.03;5031832;28;20223;-76
2024/04/01 01:45:50;;;;;;;1.33;1.23;;;;;;;10.54;100.00;96999.84;5024330;28;20262;-76
2024/04/01 01:48:15;;;;;;;0.98;0.98;;;;;;;10.65;100.00;96994.84;5011865;28;20232;-75
2024/04/01 01:50:41;;;;;;;1.85;1.30;;;;;;;10.68;100.00;97001.69;5004391;28;20275;-76
2024/04/01 01:53:09;;;;;;;1.33;1.23;;;;;;;10.70;100.00;96994.84;5024023;28;20208;-76
2024/04/01 01:55:34;;;;;;;4.50;1.50;;;;;;;10.54;100.00;96987.00;5003540;28;20265;-76
2024/04/01 01:58:00;;;;;;;1.60;1.50;;;;;;;10.46;100.00;97000.59;5008010;28;20225;-76
2024/04/01 02:00:26;;;;;;;1.75;1.65;;;;;;;10.42;100.00;96991.13;5009350;28;20205;-76
2024/04/01 02:02:52;;;;;;;1.58;1.30;;;;;;;10.28;100.00;96982.41;5016835;28;20261;-76
2024/04/01 02:05:17;;;;;;;2.28;1.55;;;;;;;10.44;100.00;96980.06;5022409;28;20612;-76
2024/04/01 02:07:43;;;;;;;1.88;1.40;;;;;;;10.45;100.00;96966.38;5026088;28;20213;-76
2024/04/01 02:10:08;;;;;;;0.90;0.90;;;;;;;10.29;100.00;96967.06;5030873;28;20216;-76
2024/04/01 02:12:34;;;;;;;1.00;1.00;;;;;;;10.54;100.00;96976.75;5033342;28;20219;-76
2024/04/01 02:15:02;;;;;;;2.78;1.08;;;;;;;10.50;100.00;96990.38;5012282;28;20208;-76
2024/04/01 02:17:27;;;;;;;0.90;0.90;;;;;;;10.52;100.00;97003.22;5005589;28;20651;-76
2024/04/01 02:19:53;;;;;;;0.85;0.82;;;;;;;10.59;100.00;97000.75;5027034;28;20488;-76
2024/04/01 02:22:22;;;;;;;2.05;0.95;;;;;;;10.51;100.00;97001.50;4993803;28;20204;-76
2024/04/01 02:24:48;;;;;;;1.05;0.90;;;;;;;10.54;100.00;96992.16;5034637;28;20211;-76
2024/04/01 02:27:13;;;;;;;0.90;0.85;;;;;;;10.60;100.00;96987.06;5005841;28;20212;-76
2024/04/01 02:29:39;;;;;;;1.10;1.10;;;;;;;10.62;100.00;96972.53;5025760;28;20243;-76
2024/04/01 02:32:06;;;;;;;1.85;0.98;;;;;;;10.56;100.00;96957.09;5011024;28;20229;-76
2024/04/01 02:34:32;;;;;;;1.00;1.00;;;;;;;10.54;100.00;96955.38;5004142;28;20212;-77
2024/04/01 02:36:57;;;;;;;1.05;0.77;;;;;;;10.53;100.00;96949.38;5014909;28;20235;-76
2024/04/01 02:39:23;;;;;;;0.98;0.98;;;;;;;10.61;100.00;96957.16;5008865;28;20255;-76
2024/04/01 02:41:50;;;;;;;1.25;0.90;;;;;;;10.51;100.00;96948.50;5007215;28;20297;-76
2024/04/01 02:44:16;;;;;;;1.33;1.10;;;;;;;10.56;100.00;96959.66;5008890;28;20212;-77
2024/04/01 02:46:42;;;;;;;1.13;1.08;;;;;;;10.65;100.00;96958.91;5027496;28;20680;-76
2024/04/01 02:49:11;;;;;;;1.52;1.02;;;;;;;10.68;100.00;96961.50;5021235;28;20223;-76
2024/04/01 02:51:40;;;;;;;1.55;1.23;;;;;;;10.68;100.00;96966.63;5004428;28;20227;-76
2024/04/01 02:54:06;;;;;;;2.80;1.50;;;;;;;10.66;100.00;96968.31;5042870;28;20211;-76
2024/04/01 02:56:32;;;;;;;1.67;1.40;;;;;;;10.71;100.00;96978.63;5011039;28;20212;-76
2024/04/01 02:59:03;;;;;;;1.65;1.40;;;;;;;10.64;100.00;96968.31;5024836;28;20738;-76
2024/04/01 03:01:28;;;;;;;1.00;1.00;;;;;;;10.62;100.00;96980.25;5005604;28;20247;-76
2024/04/01 03:04:01;;;;;;;1.30;1.20;;;;;;;10.58;100.00;96987.91;5009302;28;20751;-76
2024/04/01 03:06:28;;;;;;;1.85;1.23;;;;;;;10.61;100.00;96993.94;5003481;28;20243;-76
2024/04/01 03:08:54;;;;;;;2.63;1.40;;;;;;;10.49;100.00;96998.06;4992889;28;20285;-75
2024/04/01 03:11:20;;;;;;;1.17;1.17;;;;;;;10.63;100.00;96996.50;4998118;28;20228;-76
2024/04/01 03:13:48;;;;;;;2.78;1.42;;;;;;;10.64;100.00;97003.38;5012921;28;20246;-76
2024/04/01 03:16:15;;;;;;;1.80;1.70;;;;;;;10.54;100.00;96999.84;5024264;28;20215;-75
2024/04/01 03:18:40;;;;;;;1.70;1.45;;;;;;;10.53;100.00;96995.53;5032330;28;20235;-76
2024/04/01 03:21:08;;;;;;;2.83;1.70;;;;;;;10.43;100.00;96992.84;5003468;28;20212;-76
2024/04/01 03:23:33;;;;;;;2.47;1.40;;;;;;;10.44;100.00;97003.16;5009720;28;20218;-76
2024/04/01 03:25:59;;;;;;;4.63;1.70;;;;;;;10.35;100.00;97010.72;5008141;28;20219;-76
2024/04/01 03:28:25;;;;;;;1.50;1.40;;;;;;;10.41;100.00;97010.78;5031706;28;20307;-76
2024/04/01 03:30:50;;;;;;;1.30;1.20;;;;;;;10.37;100.00;97009.06;5004226;28;20251;-75
2024/04/01 03:33:16;;;;;;;1.80;1.58;;;;;;;10.40;100.00;97009.09;5028682;28;20235;-75
2024/04/01 03:35:42;;;;;;;1.60;1.50;;;;;;;10.21;100.00;97002.00;5009956;28;20267;-75
2024/04/01 03:38:08;;;;;;;2.75;1.70;;;;;;;10.42;100.00;97012.50;4994376;28;20691;-75
2024/04/01 03:40:41;;;;;;;4.93;1.92;;;;;;;10.33;100.00;97017.53;5009820;28;20575;-75
2024/04/01 03:43:08;;;;;;;2.92;2.05;;;;;;;10.41;100.00;97027.91;5010608;28;20199;-75
2024/04/01 03:45:33;;;;;;;3.08;2.30;;;;;;;10.14;100.00;97028.41;5020703;28;20246;-75
2024/04/01 03:47:59;;;;;;;4.20;2.20;;;;;;;10.25;100.00;97046.47;5013573;28;20633;-75
2024/04/01 03:50:25;;;;;;;2.80;2.60;;;;;;;10.31;100.00;97044.84;5000456;28;20212;-75
2024/04/01 03:52:52;;;;;;;4.97;2.83;;;;;;;10.04;100.00;97052.16;5003113;28;20577;-75
2024/04/01 03:55:17;;;;;;;6.93;3.45;;;;;;;10.06;100.00;97047.94;5030921;28;20204;-75
2024/04/01 03:57:43;;;;;;;5.00;3.45;;;;;;;10.22;100.00;97061.84;5020669;28;20217;-75
2024/04/01 04:00:09;;;;;;;3.75;2.67;;;;;;;10.15;100.00;97063.47;5009660;28;20624;-75
2024/04/01 04:02:35;;;;;;;4.32;2.75;;;;;;;10.08;100.00;97072.75;5004313;28;20205;-75
2024/04/01 04:05:00;;;;;;;1.60;1.50;;;;;;;9.99;100.00;97071.75;5011893;28;20211;-75
2024/04/01 04:07:26;;;;;;;1.98;1.55;;;;;;;9.92;100.00;97080.19;5024466;28;20216;-75
2024/04/01 04:09:51;;;;;;;2.75;1.70;;;;;;;9.84;100.00;97074.06;5003317;28;20212;-75
2024/04/01 04:12:17;;;;;;;3.38;1.67;;;;;;;9.84;100.00;97071.53;5024169;28;20235;-75
2024/04/01 04:14:43;;;;;;;2.58;1.90;;;;;;;9.85;100.00;97076.69;5032093;28;20208;-75
2024/04/01 04:17:08;;;;;;;1.98;1.77;;;;;;;9.87;100.00;97076.69;5007014;28;20204;-75
2024/04/01 04:19:34;;;;;;;2.38;1.40;;;;;;;9.77;100.00;97079.94;5013099;28;20232;-75
2024/04/01 04:21:59;;;;;;;2.65;1.38;;;;;;;9.78;100.00;97081.69;5011737;28;20715;-75
2024/04/01 04:24:25;;;;;;;1.90;1.15;;;;;;;9.86;100.00;97078.38;5025752;28;20209;-75
2024/04/01 04:26:51;;;;;;;1.13;1.02;;;;;;;9.79;100.00;97084.25;5032415;28;20217;-75
2024/04/01 04:29:17;;;;;;;1.33;1.23;;;;;;;9.73;100.00;97088.41;5039278;28;20595;-75
2024/04/01 04:31:56;;;;;;;3.60;1.80;;;;;;;9.79;100.00;97083.41;5011397;28;20231;-75
2024/04/01 04:34:22;;;;;;;1.67;1.00;;;;;;;9.79;100.00;97088.53;5002285;28;20584;-75
2024/04/01 04:36:48;;;;;;;1.80;1.13;;;;;;;9.71;100.00;97097.78;5021982;28;20213;-75
2024/04/01 04:39:24;;;;;;;1.00;1.00;;;;;;;9.73;100.00;97091.84;5011159;28;20354;-75
2024/04/01 04:41:53;;;;;;;1.38;1.15;;;;;;;9.76;100.00;97088.47;5007342;28;20667;-75
2024/04/01 04:44:18;;;;;;;1.38;1.27;;;;;;;9.73;100.00;97098.66;5024300;28;20252;-75
2024/04/01 04:46:44;;;;;;;1.75;1.20;;;;;;;9.70;100.00;97098.63;5012126;28;20216;-75
2024/04/01 04:49:10;;;;;;;2.13;1.27;;;;;;;9.71;100.00;97110.59;5025718;28;20225;-75
2024/04/01 04:51:36;;;;;;;2.35;1.25;;;;;;;9.72;100.00;97120.03;5012807;28;20231;-74
2024/04/01 04:54:04;;;;;;;1.20;1.10;;;;;;;9.68;100.00;97113.13;5026162;28;20246;-75
2024/04/01 04:56:29;;;;;;;1.40;1.27;;;;;;;9.64;100.00;97115.63;5006397;28;20208;-75
2024/04/01 04:58:55;;;;;;;3.78;1.42;;;;;;;9.61;100.00;97110.47;5021618;28;20231;-75
2024/04/01 05:01:21;;;;;;;1.25;1.10;;;;;;;9.58;100.00;97119.81;4994538;28;20208;-75
2024/04/01 05:03:46;;;;;;;1.23;1.05;;;;;;;9.66;100.00;97118.22;5007806;28;20259;-75
2024/04/01 05:06:13;;;;;;;0.98;0.93;;;;;;;9.58;100.00;97119.81;5017367;28;20573;-74
2024/04/01 05:08:38;;;;;;;0.90;0.90;;;;;;;9.48;100.00;97118.75;5010264;28;20224;-75
2024/04/01 05:11:07;;;;;;;1.17;1.08;;;;;;;9.47;100.00;97122.19;5021879;28;20227;-75
2024/04/01 05:13:35;;;;;;;1.00;1.00;;;;;;;9.52;100.00;97117.13;5022661;28;20669;-75
2024/04/01 05:16:08;;;;;;;0.90;0.90;;;;;;;9.43;100.00;97119.53;5022053;28;20211;-75
2024/04/01 05:18:35;;;;;;;1.10;1.00;;;;;;;9.55;100.00;97125.72;4992567;28;20228;-75
2024/04/01 05:21:03;;;;;;;1.17;1.00;;;;;;;9.51;100.00;97121.41;5015726;28;20199;-75
2024/04/01 05:23:29;;;;;;;1.15;1.05;;;;;;;9.41;100.00;97122.06;5014306;28;20212;-75
2024/04/01 05:25:55;;;;;;;1.40;1.00;;;;;;;9.47;100.00;97114.50;5027455;28;20218;-74
2024/04/01 05:28:21;;;;;;;1.17;1.08;;;;;;;9.43;100.00;97107.59;5026607;28;20228;-74
2024/04/01 05:30:52;;;;;;;1.92;1.20;;;;;;;9.60;100.00;97097.63;5012123;28;20216;-75
2024/04/01 05:33:22;;;;;;;0.80;0.80;;;;;;;9.62;100.00;97086.56;5019586;28;20209;-74
2024/04/01 05:35:48;;;;;;;1.05;1.05;;;;;;;9.49;100.00;97087.19;5028059;28;20695;-75
2024/04/01 05:38:15;;;;;;;1.08;0.95;;;;;;;9.56;100.00;97081.34;5030163;28;20236;-75
2024/04/01 05:40:41;;;;;;;1.13;0.70;;;;;;;9.44;100.00;97104.22;5014272;28;20216;-74
2024/04/01 05:43:06;;;;;;;0.85;0.85;;;;;;;9.25;100.00;97114.94;5010566;28;20204;-75
2024/04/01 05:45:33;;;;;;;1.10;0.60;;;;;;;9.33;100.00;97136.44;5026925;28;20248;-75
2024/04/01 05:47:58;;;;;;;0.60;0.60;;;;;;;9.29;100.00;97142.34;5008831;28;20224;-75
2024/04/01 05:50:24;;;;;;;0.55;0.55;;;;;;;9.38;100.00;97147.59;5008076;28;20231;-75
2024/04/01 05:52:50;;;;;;;0.88;0.65;;;;;;;9.26;100.00;97152.53;5025185;28;20310;-74
2024/04/01 05:55:19;;;;;;;0.90;0.63;;;;;;;9.17;100.00;97160.00;5028129;28;20209;-75
2024/04/01 05:57:44;;;;;;;0.70;0.70;;;;;;;9.16;100.00;97162.56;4996785;28;20647;-75
2024/04/01 06:00:10;;;;;;;1.17;0.73;;;;;;;9.02;100.00;97172.53;5026476;28;20204;-74
2024/04/01 06:02:36;;;;;;;0.60;0.60;;;;;;;9.03;100.00;97177.66;5033253;28;20575;-75
2024/04/01 06:05:01;;;;;;;0.70;0.70;;;;;;;9.00;100.00;97181.84;5029985;28;20203;-75
2024/04/01 06:07:28;;;;;;;0.70;0.70;;;;;;;9.05;100.00;97183.69;5010834;28;20203;-75
2024/04/01 06:09:55;;;;;;;1.20;0.57;;;;;;;9.16;100.00;97181.34;5014887;28;20292;-75
2024/04/01 06:12:20;;;;;;;0.90;0.90;;;;;;;9.14;100.00;97178.75;5007881;28;20223;-75
2024/04/01 06:14:46;;;;;;;0.60;0.60;;;;;;;9.13;100.00;97191.53;5007468;28;20212;-75
2024/04/01 06:17:11;;;;;;;0.60;0.60;;;;;;;9.11;100.00;97193.19;5007709;28;20208;-75
2024/04/01 06:19:37;;;;;;;0.63;0.63;;;;;;;9.02;100.00;97186.19;5024511;28;20229;-75
2024/04/01 06:22:03;;;;;;;1.30;0.82;;;;;;;9.01;100.00;97191.28;5029544;28;20203;-75
2024/04/01 06:24:28;;;;;;;0.82;0.70;;;;;;;9.02;100.00;97193.88;4996694;28;20208;-75
2024/04/01 06:26:54;;;;;;;0.70;0.70;;;;;;;9.06;100.00;97199.94;5021284;28;20215;-75
2024/04/01 06:29:19;;;;;;;1.02;0.98;;;;;;;8.95;100.00;97203.94;5020908;28;20716;-74
2024/04/01 06:31:46;;;;;;;1.38;1.27;;;;;;;8.91;100.00;97225.19;5003372;28;20224;-75
2024/04/01 06:34:12;;;;;;;1.60;1.50;;;;;;;8.97;100.00;97215.06;5020133;28;20211;-75
2024/04/01 06:36:37;;;;;;;1.30;1.30;;;;;;;8.90;100.00;97224.31;5024187;28;20200;-75
2024/04/01 06:39:04;;;;;;;1.30;1.20;;;;;;;8.94;100.00;97226.13;5024117;28;20235;-75
2024/04/01 06:41:31;;;;;;;1.60;1.50;;;;;;;9.00;100.00;97235.59;5024437;28;20263;-75
2024/04/01 06:43:56;;;;;;;1.08;1.08;;;;;;;9.03;100.00;97238.25;4997787;28;20299;-75
2024/04/01 06:46:22;;;;;;;1.95;1.35;;;;;;;9.08;100.00;97239.19;5026794;28;20207;-75
2024/04/01 06:48:47;;;;;;;1.02;1.02;;;;;;;9.00;100.00;97222.81;5025017;28;20232;-75
2024/04/01 06:51:13;;;;;;;1.42;1.33;;;;;;;9.15;100.00;97225.69;5025450;28;20238;-75
2024/04/01 06:53:38;;;;;;;1.65;1.50;;;;;;;9.19;100.00;97227.50;5020964;28;20236;-75
2024/04/01 06:56:04;;;;;;;1.40;1.30;;;;;;;9.25;100.00;97225.03;4989049;28;21004;-75
2024/04/01 06:58:29;;;;;;;2.00;1.90;;;;;;;9.30;100.00;97213.22;5026403;28;20704;-75
2024/04/01 07:00:55;;;;;;;1.90;1.80;;;;;;;9.46;100.00;97217.78;5006836;28;20622;-75
2024/04/01 07:03:20;;;;;;;2.15;2.05;;;;;;;9.55;100.00;97211.94;5025126;28;20208;-75
2024/04/01 07:05:46;;;;;;;2.45;2.30;;;;;;;9.59;100.00;97213.72;5025476;28;20215;-75
2024/04/01 07:08:12;;;;;;;2.10;1.90;;;;;;;9.67;100.00;97217.31;4993938;28;20233;-74
2024/04/01 07:10:37;;;;;;;2.00;1.90;;;;;;;9.67;100.00;97227.56;5009710;28;20201;-75
2024/04/01 07:13:03;;;;;;;1.90;1.80;;;;;;;9.68;100.00;97238.66;5004914;28;20207;-75
2024/04/01 07:15:28;;;;;;;3.05;1.45;;;;;;;9.64;100.00;97233.50;5027552;28;20234;-75
2024/04/01 07:17:54;;;;;;;1.55;1.48;;;;;;;9.69;100.00;97240.41;5012579;28;20219;-74
2024/04/01 07:20:19;;;;;;;1.50;1.48;;;;;;;9.63;100.00;97226.63;5007105;28;20211;-75
2024/04/01 07:22:45;;;;;;;1.67;1.48;;;;;;;9.69;100.00;97240.41;5029423;28;20238;-75
2024/04/01 07:25:11;;;;;;;1.42;1.30;;;;;;;9.62;100.00;97239.41;5004902;28;20212;-75
2024/04/01 07:27:36;;;;;;;1.33;1.23;;;;;;;9.71;100.00;97234.47;5009448;28;20727;-75
2024/04/01 07:30:06;;;;;;;1.10;1.10;;;;;;;9.69;100.00;97232.72;5014883;28;20418;-75
2024/04/01 07:32:32;;;;;;;1.75;1.35;;;;;;;9.74;100.00;97237.06;5026423;28;20236;-75
2024/04/01 07:34:59;;;;;;;1.00;1.00;;;;;;;9.77;100.00;97255.06;5014440;28;20687;-75
2024/04/01 07:37:29;;;;;;;1.42;1.27;;;;;;;9.70;100.00;97263.47;5007078;28;20664;-75
2024/04/01 07:39:56;;;;;;;1.40;1.30;;;;;;;9.64;100.00;97273.63;5010089;28;20211;-74
2024/04/01 07:42:22;;;;;;;1.40;1.30;;;;;;;9.68;100.00;97274.53;5013848;28;20200;-75
2024/04/01 07:44:49;;;;;;;1.23;1.13;;;;;;;9.51;100.00;97276.78;5010176;28;21113;-74
2024/04/01 07:47:14;;;;;;;1.08;1.00;;;;;;;9.43;100.00;97275.75;5008912;28;20212;-75
2024/04/01 07:49:40;;;;;;;1.25;1.05;;;;;;;9.57;100.00;97271.78;5012310;28;20224;-75
2024/04/01 07:52:07;;;;;;;1.10;1.05;;;;;;;9.56;100.00;97276.03;5011300;28;20227;-75
2024/04/01 07:54:33;;;;;;;0.90;0.90;;;;;;;9.54;100.00;97266.59;5002730;28;20703;-75
2024/04/01 07:57:02;;;;;;;1.33;1.23;;;;;;;9.65;100.00;97268.50;5007809;28;20203;-75
2024/04/01 07:59:28;;;;;;;1.00;1.00;;;;;;;9.51;100.00;97280.22;5009625;28;20223;-75
2024/04/01 08:01:54;;;;;;;0.80;0.80;;;;;;;9.54;100.00;97282.84;5025303;28;20203;-75
2024/04/01 08:04:20;;;;;;;1.30;1.20;;;;;;;9.51;100.00;97287.91;5018591;28;20665;-75
2024/04/01 08:06:45;;;;;;;1.20;1.10;;;;;;;9.46;100.00;97294.63;5007259;28;20208;-75
2024/04/01 08:09:11;;;;;;;1.13;1.02;;;;;;;9.44;100.00;97305.66;5005525;28;20239;-75
2024/04/01 08:11:36;;;;;;;1.33;1.23;;;;;;;9.58;100.00;97304.25;5016884;28;20227;-75
2024/04/01 08:14:02;;;;;;;0.90;0.90;;;;;;;9.45;100.00;97310.81;5021792;28;20204;-75
2024/04/01 08:16:28;;;;;;;1.00;1.00;;;;;;;9.52;100.00;97307.53;5021103;28;20207;-75
2024/04/01 08:18:53;;;;;;;1.67;1.40;;;;;;;9.54;100.00;97299.91;5010632;28;20246;-74
2024/04/01 08:21:19;;;;;;;1.67;1.58;;;;;;;9.49;100.00;97299.78;5030525;28;20660;-75
2024/04/01 08:23:44;;;;;;;1.67;1.58;;;;;;;9.50;100.00;97292.97;5008955;28;20204;-75
2024/04/01 08:26:10;;;;;;;1.02;0.90;;;;;;;9.57;100.00;97308.50;5009692;28;20223;-74
2024/04/01 08:28:36;;;;;;;2.30;2.10;;;;;;;9.63;100.00;97316.31;5029142;28;20229;-74
2024/04/01 08:31:01;;;;;;;4.85;2.85;;;;;;;9.69;100.00;97328.34;5008399;28;20206;-74
2024/04/01 08:33:27;;;;;;;4.18;3.50;;;;;;;9.79;100.00;97321.75;5016729;28;20203;-74
2024/04/01 08:35:52;;;;;;;3.75;3.20;;;;;;;9.77;100.00;97328.50;5003420;28;20214;-75
2024/04/01 08:38:18;;;;;;;3.05;2.80;;;;;;;9.75;100.00;97328.50;5008899;28;20700;-75
2024/04/01 08:40:53;;;;;;;4.20;2.83;;;;;;;9.88;100.00;97344.97;5020561;28;20212;-75
2024/04/01 08:43:38;;;;;;;2.00;1.90;;;;;;;9.84;100.00;97363.69;5005057;28;20200;-75
2024/04/01 08:46:04;;;;;;;1.63;1.52;;;;;;;9.87;100.00;97361.16;5008857;28;20231;-75
2024/04/01 08:48:31;;;;;;;2.30;1.80;;;;;;;10.04;100.00;97352.97;5009207;28;20704;-74
2024/04/01 08:51:02;;;;;;;1.73;1.63;;;;;;;10.10;100.00;97357.38;5008121;28;20207;-75
2024/04/01 08:54:11;;;;;;;1.60;1.50;;;;;;;10.16;100.00;97362.63;5030029;28;20195;-75
2024/04/01 08:56:39;;;;;;;1.48;1.38;;;;;;;10.25;100.00;97383.31;5015408;28;20207;-75
2024/04/01 08:59:06;;;;;;;1.30;1.30;;;;;;;10.18;100.00;97380.59;5025456;28;20238;-75
2024/04/01 09:01:32;;;;;;;2.35;2.15;;;;;;;10.18;100.00;97393.41;5028196;28;20204;-74
2024/04/01 09:03:57;;;;;;;5.20;4.60;;;;;;;10.26;100.00;97395.31;5026881;28;20242;-75
2024/04/01 09:06:23;;;;;;;1.73;1.63;;;;;;;10.19;100.00;97411.41;5023093;28;20212;-75
2024/04/01 09:08:51;;;;;;;1.75;1.65;;;;;;;10.19;100.00;97424.22;5016625;28;20225;-75
2024/04/01 09:11:17;;;;;;;4.15;2.67;;;;;;;10.14;100.00;97426.69;5001877;28;20724;-75
2024/04/01 09:13:42;;;;;;;6.43;3.10;;;;;;;10.09;100.00;97432.56;5009141;28;20200;-76
2024/04/01 09:16:08;;;;;;;3.83;2.08;;;;;;;10.09;100.00;97437.69;4994318;28;20553;-75
2024/04/01 09:18:37;;;;;;;1.77;1.67;;;;;;;10.20;100.00;97437.94;5005153;28;20329;-76
2024/04/01 09:21:04;;;;;;;1.50;1.40;;;;;;;10.34;100.00;97439.94;5015368;28;20219;-75
2024/04/01 09:23:31;;;;;;;1.98;1.88;;;;;;;10.34;100.00;97445.06;5031326;28;20205;-75
2024/04/01 09:26:00;;;;;;;3.88;3.03;;;;;;;10.28;100.00;97439.78;5025134;28;20305;-75
2024/04/01 09:28:26;;;;;;;2.78;2.47;;;;;;;10.38;100.00;97440.81;5008639;28;20231;-76
2024/04/01 09:30:52;;;;;;;2.10;2.00;;;;;;;10.33;100.00;97458.72;5022008;28;20627;-75
2024/04/01 09:33:18;;;;;;;2.22;2.03;;;;;;;10.40;100.00;97470.81;5009083;28;20227;-75
2024/04/01 09:35:44;;;;;;;2.10;2.00;;;;;;;10.31;100.00;97473.19;5008321;28;20661;-76
2024/04/01 09:38:10;;;;;;;1.25;1.25;;;;;;;10.21;100.00;97484.09;5024987;28;20256;-76
2024/04/01 09:40:36;;;;;;;1.42;1.40;;;;;;;10.27;100.00;97488.50;5019247;28;20649;-76
2024/04/01 09:43:02;;;;;;;1.30;1.20;;;;;;;10.22;100.00;97496.09;5005037;28;20204;-76
2024/04/01 09:45:29;;;;;;;1.48;1.30;;;;;;;10.17;100.00;97497.69;5006207;28;20236;-76
2024/04/01 09:47:54;;;;;;;1.33;0.95;;;;;;;10.12;100.00;97499.28;5027280;28;20596;-76
2024/04/01 09:50:20;;;;;;;1.15;1.15;;;;;;;10.19;100.00;97515.69;5005532;28;20240;-76
2024/04/01 09:52:46;;;;;;;1.80;1.50;;;;;;;10.11;100.00;97528.31;4996443;28;20228;-76
2024/04/01 09:55:19;;;;;;;1.50;1.40;;;;;;;10.01;100.00;97531.50;5023147;28;20216;-76
2024/04/01 09:58:03;;;;;;;1.77;1.67;;;;;;;9.99;100.00;97525.50;5028012;28;20215;-76
2024/04/01 10:01:16;;;;;;;2.47;1.60;;;;;;;10.10;100.00;97534.28;5025339;28;20215;-76
2024/04/01 10:03:48;;;;;;;2.15;1.65;;;;;;;9.99;100.00;97540.88;5028523;28;20213;-76
2024/04/01 10:06:32;;;;;;;1.58;1.40;;;;;;;9.98;100.00;97546.81;5027000;28;20219;-76
2024/04/01 10:09:26;;;;;;;1.60;1.50;;;;;;;10.10;100.00;97557.38;5026183;28;20231;-76
2024/04/01 10:11:52;;;;;;;1.35;1.30;;;;;;;9.97;100.00;97563.03;5024112;28;20239;-76
2024/04/01 10:14:17;;;;;;;1.45;1.35;;;;;;;9.93;100.00;97558.69;5008992;28;20208;-76
2024/04/01 10:16:54;;;;;;;2.65;2.45;;;;;;;10.07;100.00;97557.28;5021758;28;20219;-76
2024/04/01 10:19:29;;;;;;;2.42;2.33;;;;;;;9.91;100.00;97565.47;5013589;28;20223;-76
2024/04/01 10:22:18;;;;;;;1.52;1.42;;;;;;;9.88;100.00;97568.84;5021803;28;20732;-76
2024/04/01 10:25:22;;;;;;;1.75;1.65;;;;;;;9.83;100.00;97577.22;5009456;28;20216;-75
2024/04/01 10:28:09;;;;;;;1.83;1.70;;;;;;;9.78;100.00;97589.09;5016242;28;20234;-76
2024/04/01 10:31:13;;;;;;;3.45;3.13;;;;;;;9.78;100.00;97594.22;5020573;28;20705;-76
2024/04/01 10:33:59;;;;;;;7.20;6.50;;;;;;;9.86;100.00;97596.09;5015319;28;20685;-75
2024/04/01 10:36:36;;;;;;;6.68;6.07;;;;;;;9.93;100.00;97602.28;5030209;28;20688;-75
2024/04/01 10:39:29;;;;;;;4.20;3.75;;;;;;;9.94;100.00;97616.81;4993493;28;20238;-75
2024/04/01 10:42:21;;;;;;;3.63;3.33;;;;;;;9.84;100.00;97617.41;5016036;28;20692;-75
2024/04/01 10:44:59;;;;;;;4.68;4.10;;;;;;;9.72;100.00;97630.81;5032449;28;20602;-75
2024/04/01 10:47:55;;;;;;;3.22;2.92;;;;;;;9.80;100.00;97624.16;5023111;28;20212;-75
2024/04/01 10:50:26;;;;;;;4.55;3.92;;;;;;;9.88;100.00;97624.34;5007522;28;20591;-75
2024/04/01 10:53:07;;;;;;;5.30;4.80;;;;;;;9.85;100.00;97639.66;5018781;28;20704;-75
2024/04/01 10:55:43;;;;;;;3.55;3.28;;;;;;;9.91;100.00;97657.75;5027854;28;20629;-75
2024/04/01 10:58:24;;;;;;;3.97;3.67;;;;;;;9.82;100.00;97662.66;5023469;28;20285;-75
2024/04/01 11:01:05;;;;;;;3.40;3.10;;;;;;;9.89;100.00;97669.69;5026299;28;20265;-75
2024/04/01 11:03:53;;;;;;;5.10;4.70;;;;;;;10.01;100.00;97675.09;5023444;28;20212;-75
2024/04/01 11:06:37;;;;;;;5.85;5.35;;;;;;;10.09;100.00;97678.72;5005603;28;20212;-75
2024/04/01 11:09:31;;;;;;;5.95;5.35;;;;;;;10.08;100.00;97682.09;5010299;28;20254;-75
2024/04/01 11:12:26;;;;;;;4.10;3.35;;;;;;;10.05;100.00;97692.28;5014547;28;20219;-76
2024/04/01 11:14:54;;;;;;;2.50;2.30;;;;;;;9.95;100.00;97715.97;5032268;28;20729;-77
2024/04/01 11:17:19;;;;;;;2.60;1.90;;;;;;;9.67;100.00;97724.66;5020067;28;20664;-77
2024/04/01 11:20:04;;;;;;;1.95;1.75;;;;;;;9.38;100.00;97715.31;5009020;28;20275;-76
2024/04/01 11:22:48;;;;;;;3.55;2.17;;;;;;;9.18;100.00;97719.00;5026167;28;20275;-75
2024/04/01 11:25:43;;;;;;;4.00;3.20;;;;;;;9.17;100.00;97725.81;5005869;28;20746;-75
2024/04/01 11:28:15;;;;;;;5.18;3.95;;;;;;;9.12;100.00;97725.72;5019734;28;20227;-74
2024/04/01 11:30:43;;;;;;;2.97;2.67;;;;;;;9.13;100.00;97718.91;5019939;28;20603;-74
2024/04/01 11:33:09;;;;;;;3.10;2.50;;;;;;;9.34;100.00;97724.63;5002926;28;20224;-74
2024/04/01 11:35:53;;;;;;;3.20;2.53;;;;;;;9.33;100.00;97728.00;5023388;28;20576;-74